Time;durP1;ratioP1;P1;durP2;ratioP2;P2;SDS_P1;SDS_P2;PMS_P1;PMS_P2;Temp;Humidity;BMP_temperature;BMP_pressure;BME280_temperature;BME280_humidity;BME280_pressure;Samples;Min_cycle;Max_cycle;Signal;HPM_P1;HPM_P2
2023/10/18 00:03:11;;;;;;;20.50;11.60;;;;;;;;;;4909158;29;20060;-79
2023/10/18 00:05:40;;;;;;;25.88;11.85;;;;;;;;;;4923685;29;20056;-77
2023/10/18 00:08:09;;;;;;;26.08;12.75;;;;;;;;;;4914336;29;20074;-77
2023/10/18 00:10:35;;;;;;;22.92;12.18;;;;;;;;;;4913206;29;20052;-77
2023/10/18 00:13:01;;;;;;;24.70;12.73;;;;;;;;;;4900423;29;20535;-79
2023/10/18 00:15:31;;;;;;;21.42;12.00;;;;;;;;;;4898023;29;20127;-79
2023/10/18 00:17:57;;;;;;;30.35;13.25;;;;;;;;;;4894023;29;20052;-79
2023/10/18 00:20:25;;;;;;;25.80;12.90;;;;;;;;;;4914264;29;20058;-78
2023/10/18 00:22:53;;;;;;;24.20;13.52;;;;;;;;;;4907232;29;20071;-77
2023/10/18 00:25:21;;;;;;;28.65;13.02;;;;;;;;;;4913465;29;20070;-80
2023/10/18 00:27:49;;;;;;;25.27;14.07;;;;;;;;;;4913405;29;20576;-77
2023/10/18 00:30:18;;;;;;;24.85;13.88;;;;;;;;;;4900564;29;20048;-78
2023/10/18 00:32:44;;;;;;;29.30;13.95;;;;;;;;;;4913984;29;20052;-78
2023/10/18 00:35:44;;;;;;;22.70;12.57;;;;;;;;;;4914093;29;20044;-78
2023/10/18 00:38:04;;;;;;;24.70;12.32;;;;;;;;;;4914503;29;20505;-77
2023/10/18 00:43:28;;;;;;;27.08;13.60;;;;;;;;;;4912422;29;20062;-77
2023/10/18 00:45:55;;;;;;;21.23;12.52;;;;;;;;;;4875833;29;20060;-77
2023/10/18 00:48:37;;;;;;;29.85;13.80;;;;;;;;;;4910849;29;20118;-77
2023/10/18 00:51:03;;;;;;;26.67;13.65;;;;;;;;;;4913784;29;20052;-78
2023/10/18 00:53:35;;;;;;;20.08;14.00;;;;;;;;;;4913190;29;20531;-78
2023/10/18 00:56:06;;;;;;;22.30;13.25;;;;;;;;;;4919501;29;20503;-78
2023/10/18 00:58:38;;;;;;;24.90;14.07;;;;;;;;;;4913380;29;20048;-76
2023/10/18 01:01:09;;;;;;;26.05;13.10;;;;;;;;;;4914626;29;20076;-76
2023/10/18 01:03:39;;;;;;;28.55;13.55;;;;;;;;;;4910962;29;20051;-77
2023/10/18 01:06:16;;;;;;;26.45;12.43;;;;;;;;;;4911337;29;20143;-80
2023/10/18 01:08:46;;;;;;;26.25;13.40;;;;;;;;;;4912964;29;20052;-78
2023/10/18 01:11:14;;;;;;;22.45;12.73;;;;;;;;;;4892202;29;20470;-76
2023/10/18 01:13:42;;;;;;;22.27;12.88;;;;;;;;;;4913919;29;20535;-76
2023/10/18 01:16:14;;;;;;;25.08;13.25;;;;;;;;;;4914993;29;20044;-77
2023/10/18 01:18:49;;;;;;;23.13;13.25;;;;;;;;;;4912376;29;20044;-77
2023/10/18 01:21:18;;;;;;;26.15;12.55;;;;;;;;;;4911880;29;20059;-79
2023/10/18 01:23:52;;;;;;;25.33;13.07;;;;;;;;;;4918978;29;20068;-78
2023/10/18 01:26:21;;;;;;;27.23;12.60;;;;;;;;;;4914723;29;20457;-78
2023/10/18 01:28:47;;;;;;;26.48;12.88;;;;;;;;;;4911523;29;20472;-75
2023/10/18 01:31:14;;;;;;;23.25;13.02;;;;;;;;;;4914540;29;20051;-79
2023/10/18 01:33:44;;;;;;;25.98;13.65;;;;;;;;;;4914190;29;20048;-77
2023/10/18 01:36:17;;;;;;;24.75;13.70;;;;;;;;;;4913794;29;20131;-78
2023/10/18 01:38:48;;;;;;;30.58;14.10;;;;;;;;;;4911762;29;20074;-77
2023/10/18 01:41:25;;;;;;;25.20;13.98;;;;;;;;;;4911383;29;20100;-78
2023/10/18 01:44:01;;;;;;;26.50;13.82;;;;;;;;;;4909803;29;20080;-76
2023/10/18 01:46:29;;;;;;;30.40;14.35;;;;;;;;;;4912623;29;20071;-79
2023/10/18 01:48:57;;;;;;;28.92;13.77;;;;;;;;;;4911862;29;20045;-76
2023/10/18 01:51:24;;;;;;;29.45;15.35;;;;;;;;;;4912640;29;20392;-78
2023/10/18 01:53:50;;;;;;;25.33;14.93;;;;;;;;;;4914393;29;20138;-76
2023/10/18 01:56:19;;;;;;;25.27;15.00;;;;;;;;;;4916434;29;20062;-80
2023/10/18 01:58:47;;;;;;;30.88;15.18;;;;;;;;;;4902200;29;20063;-77
2023/10/18 02:01:16;;;;;;;24.98;14.55;;;;;;;;;;4914734;29;20051;-77
2023/10/18 02:03:52;;;;;;;23.90;13.95;;;;;;;;;;4911908;29;20048;-76
2023/10/18 02:06:20;;;;;;;29.75;15.60;;;;;;;;;;4918590;29;20060;-76
2023/10/18 02:08:48;;;;;;;34.20;15.85;;;;;;;;;;4913144;29;20059;-76
2023/10/18 02:11:17;;;;;;;30.00;14.95;;;;;;;;;;4911913;29;20052;-78
2023/10/18 02:13:44;;;;;;;27.15;15.20;;;;;;;;;;4913872;29;20158;-77
2023/10/18 02:16:14;;;;;;;33.42;14.68;;;;;;;;;;4913361;29;20068;-78
2023/10/18 02:18:46;;;;;;;26.23;14.85;;;;;;;;;;4913665;29;20052;-78
2023/10/18 02:21:14;;;;;;;24.25;14.48;;;;;;;;;;4920378;29;20134;-78
2023/10/18 02:23:46;;;;;;;27.42;13.55;;;;;;;;;;4925700;29;20408;-78
2023/10/18 02:29:13;;;;;;;29.13;14.35;;;;;;;;;;4916951;29;20115;-77
2023/10/18 02:31:42;;;;;;;29.88;13.25;;;;;;;;;;4934192;29;20264;-78
2023/10/18 02:34:09;;;;;;;36.25;13.52;;;;;;;;;;4920491;29;20052;-79
2023/10/18 02:36:39;;;;;;;30.73;13.50;;;;;;;;;;4914149;29;20075;-75
2023/10/18 02:39:09;;;;;;;23.73;13.15;;;;;;;;;;4911451;29;20055;-78
2023/10/18 02:41:40;;;;;;;24.90;13.27;;;;;;;;;;4886840;29;20055;-79
2023/10/18 02:44:15;;;;;;;26.50;12.43;;;;;;;;;;4911465;29;20067;-79
2023/10/18 02:46:47;;;;;;;26.08;12.80;;;;;;;;;;4910592;29;20082;-80
2023/10/18 02:49:13;;;;;;;23.25;13.45;;;;;;;;;;4910197;29;20547;-78
2023/10/18 02:51:40;;;;;;;26.20;13.70;;;;;;;;;;4910930;29;20183;-77
2023/10/18 02:56:52;;;;;;;24.38;13.57;;;;;;;;;;4913391;29;20048;-79
2023/10/18 02:59:24;;;;;;;27.42;14.63;;;;;;;;;;4914640;29;20048;-78
2023/10/18 03:02:00;;;;;;;24.90;13.88;;;;;;;;;;4902575;29;20145;-78
2023/10/18 03:04:28;;;;;;;28.88;13.32;;;;;;;;;;4915461;29;20553;-78
2023/10/18 03:06:56;;;;;;;26.73;13.73;;;;;;;;;;4912436;29;20048;-80
2023/10/18 03:09:38;;;;;;;23.40;13.23;;;;;;;;;;4911305;29;20056;-80
2023/10/18 03:12:14;;;;;;;24.60;11.65;;;;;;;;;;4911573;29;20111;-77
2023/10/18 03:14:57;;;;;;;22.75;10.90;;;;;;;;;;4895626;29;20048;-76
2023/10/18 03:17:24;;;;;;;28.30;11.15;;;;;;;;;;4910339;29;20334;-78
2023/10/18 03:19:56;;;;;;;25.33;10.77;;;;;;;;;;4909715;29;20056;-76
2023/10/18 03:22:31;;;;;;;17.83;9.25;;;;;;;;;;4895076;29;20507;-78
2023/10/18 03:25:00;;;;;;;19.70;8.55;;;;;;;;;;4897378;29;20142;-77
2023/10/18 03:27:33;;;;;;;20.17;8.98;;;;;;;;;;4915343;29;20419;-77
2023/10/18 03:30:12;;;;;;;26.52;8.57;;;;;;;;;;4910654;29;20125;-77
2023/10/18 03:32:40;;;;;;;16.52;8.52;;;;;;;;;;4914596;29;20036;-71
2023/10/18 03:35:09;;;;;;;16.65;7.00;;;;;;;;;;4910058;29;20079;-70
2023/10/18 03:37:39;;;;;;;18.98;7.68;;;;;;;;;;4888364;29;20060;-72
2023/10/18 03:40:24;;;;;;;20.10;7.18;;;;;;;;;;4909038;29;20424;-71
2023/10/18 03:42:51;;;;;;;16.45;6.65;;;;;;;;;;4911320;29;21187;-69
2023/10/18 03:45:21;;;;;;;18.65;7.07;;;;;;;;;;4907600;29;20051;-70
2023/10/18 03:47:57;;;;;;;16.38;6.55;;;;;;;;;;4908293;29;20086;-69
2023/10/18 03:51:00;;;;;;;16.48;6.60;;;;;;;;;;4909743;29;20467;-70
2023/10/18 03:53:18;;;;;;;17.20;6.20;;;;;;;;;;4906391;29;20048;-70
2023/10/18 03:55:45;;;;;;;21.80;6.50;;;;;;;;;;4907134;29;20546;-70
2023/10/18 03:58:17;;;;;;;17.35;4.95;;;;;;;;;;4914556;29;20059;-72
2023/10/18 04:00:47;;;;;;;13.85;4.97;;;;;;;;;;4907768;29;20428;-71
2023/10/18 04:03:20;;;;;;;20.52;4.20;;;;;;;;;;4908825;29;20528;-71
2023/10/18 04:05:49;;;;;;;9.67;3.13;;;;;;;;;;4913213;29;20260;-70
2023/10/18 04:08:19;;;;;;;12.95;2.83;;;;;;;;;;4911113;29;20056;-68
2023/10/18 04:10:54;;;;;;;13.32;2.83;;;;;;;;;;4907527;29;20052;-70
2023/10/18 04:13:24;;;;;;;12.02;2.33;;;;;;;;;;4908898;29;21347;-70
2023/10/18 04:16:09;;;;;;;10.80;2.40;;;;;;;;;;4913392;29;20056;-69
2023/10/18 04:18:35;;;;;;;12.18;2.72;;;;;;;;;;4916572;29;20123;-71
2023/10/18 04:21:12;;;;;;;8.95;2.40;;;;;;;;;;4916306;29;20051;-69
2023/10/18 04:23:38;;;;;;;12.45;3.00;;;;;;;;;;4912588;29;20103;-74
2023/10/18 04:26:18;;;;;;;14.73;2.50;;;;;;;;;;4890359;29;20056;-71
2023/10/18 04:28:45;;;;;;;10.15;2.40;;;;;;;;;;4915342;29;20079;-70
2023/10/18 04:31:14;;;;;;;11.25;3.08;;;;;;;;;;4912308;29;20064;-71
2023/10/18 04:33:42;;;;;;;8.82;2.30;;;;;;;;;;4910956;29;20052;-71
2023/10/18 04:36:12;;;;;;;10.32;2.67;;;;;;;;;;4908787;29;20059;-71
2023/10/18 04:38:44;;;;;;;16.15;2.80;;;;;;;;;;4921003;29;20627;-70
2023/10/18 04:41:23;;;;;;;8.93;2.45;;;;;;;;;;4910168;29;20052;-72
2023/10/18 04:44:05;;;;;;;8.02;2.55;;;;;;;;;;4912396;29;20091;-73
2023/10/18 04:46:35;;;;;;;12.07;2.78;;;;;;;;;;4914429;29;20446;-76
2023/10/18 04:49:31;;;;;;;9.18;2.50;;;;;;;;;;4895944;29;20112;-75
2023/10/18 04:51:48;;;;;;;6.95;2.42;;;;;;;;;;4899027;29;20150;-74
2023/10/18 04:54:16;;;;;;;11.65;2.25;;;;;;;;;;4912487;29;20087;-73
2023/10/18 04:56:44;;;;;;;13.77;2.60;;;;;;;;;;4910849;29;20139;-74
2023/10/18 04:59:29;;;;;;;11.65;2.05;;;;;;;;;;4916174;29;20048;-72
2023/10/18 05:04:43;;;;;;;8.68;2.30;;;;;;;;;;4918224;29;20077;-72
2023/10/18 05:09:46;;;;;;;10.65;2.85;;;;;;;;;;4910892;29;20048;-73
2023/10/18 05:12:16;;;;;;;17.33;3.15;;;;;;;;;;4899200;29;20139;-72
2023/10/18 05:14:43;;;;;;;13.93;2.65;;;;;;;;;;4913440;29;20114;-72
2023/10/18 05:17:11;;;;;;;10.40;2.55;;;;;;;;;;4883794;29;20048;-73
2023/10/18 05:19:41;;;;;;;14.70;2.45;;;;;;;;;;4913987;29;20098;-73
2023/10/18 05:22:25;;;;;;;12.98;2.20;;;;;;;;;;4903538;29;20504;-73
2023/10/18 05:25:21;;;;;;;7.28;2.30;;;;;;;;;;4907003;29;20064;-73
2023/10/18 05:33:54;;;;;;;14.13;2.10;;;;;;;;;;4913532;29;20071;-71
2023/10/18 05:38:52;;;;;;;8.93;1.98;;;;;;;;;;4910067;29;20052;-73
2023/10/18 05:44:06;;;;;;;9.70;1.90;;;;;;;;;;4911489;29;20048;-72
2023/10/18 05:46:38;;;;;;;11.75;2.55;;;;;;;;;;4913161;29;20508;-72
2023/10/18 05:49:13;;;;;;;10.23;1.90;;;;;;;;;;4899565;29;20048;-72
2023/10/18 05:51:51;;;;;;;12.50;2.13;;;;;;;;;;4913638;29;20088;-72
2023/10/18 05:54:22;;;;;;;14.85;2.30;;;;;;;;;;4906242;29;20111;-74
2023/10/18 05:56:50;;;;;;;17.58;2.33;;;;;;;;;;4913077;29;20424;-73
2023/10/18 06:01:53;;;;;;;14.15;2.55;;;;;;;;;;4917179;29;20447;-72
2023/10/18 06:04:27;;;;;;;7.82;1.92;;;;;;;;;;4916032;29;20066;-71
2023/10/18 06:07:18;;;;;;;11.02;2.15;;;;;;;;;;4909406;29;20061;-71
2023/10/18 06:09:58;;;;;;;10.48;2.08;;;;;;;;;;4908927;29;20052;-73
2023/10/18 06:12:28;;;;;;;12.10;2.05;;;;;;;;;;4918116;29;20131;-71
2023/10/18 06:15:38;;;;;;;7.70;1.58;;;;;;;;;;4907275;29;20052;-72
2023/10/18 06:19:17;;;;;;;11.35;1.92;;;;;;;;;;4914789;29;20121;-77
2023/10/18 06:23:08;;;;;;;10.10;1.65;;;;;;;;;;4918320;29;20059;-73
2023/10/18 06:26:52;;;;;;;6.70;1.88;;;;;;;;;;4906427;29;20143;-75
2023/10/18 06:30:35;;;;;;;15.75;1.77;;;;;;;;;;4895038;29;20052;-79
2023/10/18 06:34:22;;;;;;;10.27;1.50;;;;;;;;;;4900296;29;20040;-74
2023/10/18 06:38:06;;;;;;;9.50;1.90;;;;;;;;;;4903481;29;20056;-74
2023/10/18 06:41:47;;;;;;;8.55;1.63;;;;;;;;;;4906998;29;20116;-76
2023/10/18 06:45:15;;;;;;;7.78;1.50;;;;;;;;;;4912263;29;20052;-74
2023/10/18 06:48:50;;;;;;;13.65;1.70;;;;;;;;;;4915427;29;20147;-75
2023/10/18 06:52:40;;;;;;;12.48;1.63;;;;;;;;;;4912003;29;20052;-74
2023/10/18 06:56:22;;;;;;;9.48;1.70;;;;;;;;;;4909467;29;20506;-78
2023/10/18 07:00:10;;;;;;;10.50;1.50;;;;;;;;;;4912482;29;20055;-76
2023/10/18 07:03:44;;;;;;;10.40;1.33;;;;;;;;;;4909457;29;20048;-73
2023/10/18 07:07:26;;;;;;;11.43;1.17;;;;;;;;;;4900917;29;20052;-74
2023/10/18 07:11:08;;;;;;;7.28;1.20;;;;;;;;;;4909395;29;20500;-75
2023/10/18 07:14:48;;;;;;;8.10;1.33;;;;;;;;;;4909068;29;20092;-73
2023/10/18 07:18:28;;;;;;;7.75;1.25;;;;;;;;;;4910787;29;20519;-74
2023/10/18 07:22:17;;;;;;;2.92;1.13;;;;;;;;;;4904503;29;20084;-73
2023/10/18 07:25:52;;;;;;;6.90;1.50;;;;;;;;;;4903891;29;20079;-74
2023/10/18 07:29:37;;;;;;;3.75;1.00;;;;;;;;;;4907149;29;21584;-79
2023/10/18 07:33:17;;;;;;;4.82;1.40;;;;;;;;;;4911295;29;20207;-73
2023/10/18 07:36:57;;;;;;;8.95;1.50;;;;;;;;;;4918806;29;20040;-74
2023/10/18 07:40:44;;;;;;;11.02;1.50;;;;;;;;;;4911781;29;20531;-72
2023/10/18 07:44:05;;;;;;;;;;;;;;;;;;4907956;29;20422;-74
2023/10/18 07:47:44;;;;;;;6.22;1.52;;;;;;;;;;4903580;29;19999;-74
2023/10/18 07:51:25;;;;;;;5.65;1.50;;;;;;;;;;4920570;29;20139;-75
2023/10/18 07:55:05;;;;;;;5.03;1.25;;;;;;;;;;4913583;29;20284;-74
2023/10/18 07:58:49;;;;;;;5.38;1.38;;;;;;;;;;4909313;29;20492;-75
2023/10/18 08:02:07;;;;;;;3.88;1.23;;;;;;;;;;4910666;29;20127;-73
2023/10/18 08:04:36;;;;;;;8.18;1.38;;;;;;;;;;4912861;29;20137;-72
2023/10/18 08:07:10;;;;;;;7.60;1.77;;;;;;;;;;4912010;29;20067;-74
2023/10/18 08:09:40;;;;;;;;;;;;;;;;;;4921697;29;20104;-73
2023/10/18 08:12:08;;;;;;;4.00;1.30;;;;;;;;;;4914322;29;20375;-75
2023/10/18 08:14:38;;;;;;;3.22;0.88;;;;;;;;;;4897432;29;20071;-76
2023/10/18 08:17:12;;;;;;;4.07;0.85;;;;;;;;;;4912852;29;20071;-74
2023/10/18 08:19:44;;;;;;;5.13;1.20;;;;;;;;;;4910896;29;20120;-75
2023/10/18 08:24:36;;;;;;;2.92;0.90;;;;;;;;;;4924028;29;20063;-73
2023/10/18 08:27:11;;;;;;;4.65;1.20;;;;;;;;;;4921200;29;20130;-73
2023/10/18 08:29:39;;;;;;;2.88;1.23;;;;;;;;;;4919560;29;20531;-73
2023/10/18 08:32:16;;;;;;;6.07;1.30;;;;;;;;;;4908842;29;20524;-75
2023/10/18 08:34:43;;;;;;;5.95;1.27;;;;;;;;;;4910977;29;20496;-75
2023/10/18 08:37:13;;;;;;;9.05;1.35;;;;;;;;;;4909204;29;20390;-74
2023/10/18 08:39:52;;;;;;;7.45;1.20;;;;;;;;;;4913555;29;20062;-77
2023/10/18 08:42:45;;;;;;;7.95;2.20;;;;;;;;;;4905768;29;20130;-75
2023/10/18 08:45:19;;;;;;;18.52;2.20;;;;;;;;;;4902763;29;20059;-75
2023/10/18 08:47:49;;;;;;;7.28;2.92;;;;;;;;;;4915317;29;20044;-74
2023/10/18 08:50:19;;;;;;;7.43;2.00;;;;;;;;;;4909076;29;20055;-74
2023/10/18 08:52:48;;;;;;;12.23;1.25;;;;;;;;;;4914499;29;20075;-73
2023/10/18 08:55:22;;;;;;;6.63;1.70;;;;;;;;;;4913793;29;20056;-76
2023/10/18 08:57:55;;;;;;;6.90;1.80;;;;;;;;;;4913766;29;20098;-74
2023/10/18 09:02:51;;;;;;;6.85;1.40;;;;;;;;;;4913591;29;20496;-73
2023/10/18 09:05:22;;;;;;;10.05;1.30;;;;;;;;;;4912115;29;20482;-75
2023/10/18 09:07:55;;;;;;;6.75;1.60;;;;;;;;;;4892705;29;20457;-74
2023/10/18 09:18:23;;;;;;;7.30;1.20;;;;;;;;;;4916061;29;20056;-73
2023/10/18 09:20:55;;;;;;;4.72;1.30;;;;;;;;;;4913887;29;20048;-74
2023/10/18 09:23:29;;;;;;;11.57;1.60;;;;;;;;;;4916172;29;20059;-74
2023/10/18 09:26:13;;;;;;;;;;;;;;;;;;4916724;29;20416;-73
2023/10/18 09:29:23;;;;;;;9.25;1.10;;;;;;;;;;4914282;29;19931;-75
2023/10/18 09:33:03;;;;;;;20.55;1.83;;;;;;;;;;4906631;29;20136;-76
2023/10/18 09:36:43;;;;;;;21.08;1.77;;;;;;;;;;4908980;29;20052;-74
2023/10/18 09:40:26;;;;;;;17.58;1.42;;;;;;;;;;4911742;29;20059;-73
2023/10/18 09:44:04;;;;;;;18.70;1.73;;;;;;;;;;4911525;29;20044;-77
2023/10/18 09:47:44;;;;;;;8.45;1.23;;;;;;;;;;4911637;29;20524;-76
2023/10/18 09:51:25;;;;;;;22.73;1.67;;;;;;;;;;4907683;29;20104;-71
2023/10/18 09:55:07;;;;;;;15.15;1.13;;;;;;;;;;4911445;29;20043;-73
2023/10/18 09:58:49;;;;;;;10.05;1.23;;;;;;;;;;4910448;29;20056;-72
2023/10/18 10:02:28;;;;;;;7.90;1.05;;;;;;;;;;4907220;29;20055;-71
2023/10/18 10:06:09;;;;;;;13.15;1.38;;;;;;;;;;4925781;29;20139;-74
2023/10/18 10:09:59;;;;;;;19.95;1.25;;;;;;;;;;4916399;29;20035;-72
2023/10/18 10:13:37;;;;;;;40.47;1.92;;;;;;;;;;4914797;29;20192;-73
2023/10/18 10:16:56;;;;;;;36.47;2.50;;;;;;;;;;4909445;29;20154;-75
2023/10/18 10:20:44;;;;;;;48.42;2.67;;;;;;;;;;4918976;29;20048;-75
2023/10/18 10:24:33;;;;;;;38.42;2.05;;;;;;;;;;4921197;29;20285;-73
2023/10/18 10:28:14;;;;;;;33.53;2.08;;;;;;;;;;4912532;29;20044;-76
2023/10/18 10:32:16;;;;;;;31.13;1.75;;;;;;;;;;4912595;29;20063;-77
2023/10/18 10:35:56;;;;;;;28.42;2.33;;;;;;;;;;4913140;29;20063;-74
2023/10/18 10:39:49;;;;;;;18.30;1.38;;;;;;;;;;4904797;29;20055;-76
2023/10/18 10:43:25;;;;;;;14.93;1.60;;;;;;;;;;4907637;29;20127;-74
2023/10/18 10:47:07;;;;;;;8.18;1.10;;;;;;;;;;4917710;29;20139;-73
2023/10/18 10:50:53;;;;;;;13.80;1.60;;;;;;;;;;4912826;29;20099;-76
2023/10/18 10:54:15;;;;;;;;;;;;;;;;;;4919381;29;20051;-73
2023/10/18 10:57:55;;;;;;;15.93;1.15;;;;;;;;;;4925152;29;19930;-77
2023/10/18 11:01:31;;;;;;;15.05;1.30;;;;;;;;;;4919367;29;20495;-76
2023/10/18 11:05:15;;;;;;;5.72;0.98;;;;;;;;;;4909835;29;20485;-74
2023/10/18 11:08:48;;;;;;;10.38;0.95;;;;;;;;;;4908746;29;20048;-77
2023/10/18 11:12:33;;;;;;;7.60;1.27;;;;;;;;;;4923234;29;20044;-77
2023/10/18 11:16:11;;;;;;;5.80;1.00;;;;;;;;;;4910366;29;20048;-74
2023/10/18 11:19:53;;;;;;;3.42;1.10;;;;;;;;;;4911615;29;20133;-75
2023/10/18 11:23:33;;;;;;;5.25;0.80;;;;;;;;;;4902876;29;20055;-72
2023/10/18 11:27:13;;;;;;;11.95;1.00;;;;;;;;;;4909582;29;20492;-73
2023/10/18 11:30:56;;;;;;;9.75;1.27;;;;;;;;;;4911904;29;20052;-78
2023/10/18 11:34:34;;;;;;;7.82;1.00;;;;;;;;;;4907923;29;20066;-80
2023/10/18 11:38:19;;;;;;;15.77;1.10;;;;;;;;;;4904950;29;20104;-78
2023/10/18 11:41:59;;;;;;;4.20;0.85;;;;;;;;;;4912675;29;20412;-77
2023/10/18 11:45:42;;;;;;;8.05;1.10;;;;;;;;;;4910309;29;20067;-77
2023/10/18 11:49:22;;;;;;;10.02;1.38;;;;;;;;;;4904161;29;20386;-77
2023/10/18 11:53:02;;;;;;;10.10;1.35;;;;;;;;;;4911464;29;20048;-74
2023/10/18 11:56:43;;;;;;;11.85;1.38;;;;;;;;;;4911547;29;20056;-75
2023/10/18 12:00:35;;;;;;;20.30;1.30;;;;;;;;;;4906312;29;20412;-74
2023/10/18 12:04:15;;;;;;;3.22;0.77;;;;;;;;;;4910627;29;20127;-73
2023/10/18 12:07:53;;;;;;;3.58;0.90;;;;;;;;;;4911298;29;20059;-74
2023/10/18 12:11:33;;;;;;;2.60;0.75;;;;;;;;;;4910988;29;20096;-75
2023/10/18 12:15:15;;;;;;;9.75;0.90;;;;;;;;;;4912695;29;20058;-74
2023/10/18 12:18:54;;;;;;;5.57;0.90;;;;;;;;;;4907975;29;20128;-77
2023/10/18 12:22:36;;;;;;;5.40;1.10;;;;;;;;;;4911990;29;20153;-74
2023/10/18 12:26:15;;;;;;;1.45;0.80;;;;;;;;;;4931415;29;20051;-75
2023/10/18 12:29:59;;;;;;;3.83;0.73;;;;;;;;;;4914321;29;20431;-77
2023/10/18 12:33:40;;;;;;;2.72;0.60;;;;;;;;;;4913523;29;20048;-74
2023/10/18 12:37:17;;;;;;;4.50;1.00;;;;;;;;;;4927965;29;20083;-74
2023/10/18 12:41:07;;;;;;;5.72;1.10;;;;;;;;;;4935160;29;20653;-73
2023/10/18 12:44:47;;;;;;;4.15;0.60;;;;;;;;;;4915732;29;20070;-75
2023/10/18 12:48:28;;;;;;;3.13;0.90;;;;;;;;;;4920243;29;20078;-75
2023/10/18 12:52:39;;;;;;;2.35;0.60;;;;;;;;;;4922364;29;20047;-75
2023/10/18 12:56:17;;;;;;;2.60;0.70;;;;;;;;;;4915623;29;20059;-76
2023/10/18 12:59:39;;;;;;;4.03;0.60;;;;;;;;;;4908479;29;20064;-73
2023/10/18 13:03:21;;;;;;;0.52;0.47;;;;;;;;;;4915199;29;20040;-76
2023/10/18 13:06:54;;;;;;;5.60;1.10;;;;;;;;;;4910271;29;20056;-76
2023/10/18 13:10:35;;;;;;;2.20;0.50;;;;;;;;;;4909030;29;20048;-74
2023/10/18 13:14:24;;;;;;;4.85;0.75;;;;;;;;;;4913852;29;20436;-75
2023/10/18 13:18:05;;;;;;;5.13;0.85;;;;;;;;;;4914252;29;20475;-73
2023/10/18 13:21:50;;;;;;;5.78;0.65;;;;;;;;;;4908679;29;20445;-76
2023/10/18 13:25:37;;;;;;;2.97;0.70;;;;;;;;;;4913714;29;20048;-75
2023/10/18 13:32:41;;;;;;;6.35;0.80;;;;;;;;;;4922201;29;20079;-76
2023/10/18 13:36:21;;;;;;;0.93;0.68;;;;;;;;;;4909165;29;20052;-74
2023/10/18 13:40:03;;;;;;;1.25;0.60;;;;;;;;;;4919240;29;20119;-76
2023/10/18 13:43:43;;;;;;;1.40;0.75;;;;;;;;;;4920600;29;20457;-76
2023/10/18 13:47:27;;;;;;;3.00;0.70;;;;;;;;;;4914591;29;20089;-78
2023/10/18 13:50:17;;;;;;;1.05;0.50;;;;;;;;;;4909313;29;20131;-79
2023/10/18 13:52:46;;;;;;;2.70;0.60;;;;;;;;;;4930437;29;20667;-77
2023/10/18 13:55:14;;;;;;;0.70;0.50;;;;;;;;;;4913952;29;20044;-74
2023/10/18 13:57:41;;;;;;;4.03;0.50;;;;;;;;;;4917596;29;20456;-75
2023/10/18 14:00:14;;;;;;;1.30;0.50;;;;;;;;;;4899967;29;20059;-75
2023/10/18 14:02:41;;;;;;;2.13;0.50;;;;;;;;;;4928175;29;20052;-75
2023/10/18 14:05:09;;;;;;;0.95;0.40;;;;;;;;;;4926770;29;20058;-74
2023/10/18 14:07:38;;;;;;;2.10;0.30;;;;;;;;;;4917460;29;20051;-75
2023/10/18 14:10:27;;;;;;;1.30;0.77;;;;;;;;;;4909732;29;20397;-75
2023/10/18 14:12:54;;;;;;;3.63;0.70;;;;;;;;;;4894320;29;20060;-76
2023/10/18 14:15:25;;;;;;;3.72;0.50;;;;;;;;;;4896802;29;20052;-76
2023/10/18 14:17:52;;;;;;;1.73;0.50;;;;;;;;;;4916225;29;20059;-76
2023/10/18 14:20:26;;;;;;;2.35;0.95;;;;;;;;;;4914791;29;20040;-77
2023/10/18 14:22:58;;;;;;;1.58;0.60;;;;;;;;;;4913476;29;20099;-75
2023/10/18 14:25:25;;;;;;;3.92;0.80;;;;;;;;;;4911622;29;20112;-74
2023/10/18 14:27:53;;;;;;;3.92;1.08;;;;;;;;;;4897711;29;20052;-78
2023/10/18 14:30:20;;;;;;;4.07;0.65;;;;;;;;;;4913830;29;20079;-76
2023/10/18 14:32:47;;;;;;;6.15;0.70;;;;;;;;;;4916717;29;20098;-75
2023/10/18 14:35:16;;;;;;;12.95;0.80;;;;;;;;;;4913025;29;20060;-75
2023/10/18 14:37:45;;;;;;;7.70;0.90;;;;;;;;;;4911745;29;20148;-74
2023/10/18 14:40:12;;;;;;;6.15;0.68;;;;;;;;;;4912292;29;20131;-76
2023/10/18 14:42:42;;;;;;;5.72;0.98;;;;;;;;;;4913259;29;20461;-75
2023/10/18 14:45:10;;;;;;;3.90;0.55;;;;;;;;;;4910571;29;20060;-76
2023/10/18 14:47:38;;;;;;;1.83;0.38;;;;;;;;;;4895628;29;20480;-78
2023/10/18 14:50:06;;;;;;;2.67;0.55;;;;;;;;;;4913265;29;20075;-79
2023/10/18 14:52:32;;;;;;;4.47;0.60;;;;;;;;;;4897480;29;20078;-74
2023/10/18 14:55:03;;;;;;;4.15;0.65;;;;;;;;;;4893566;29;20052;-75
2023/10/18 14:57:32;;;;;;;6.03;0.52;;;;;;;;;;4911233;29;20067;-76
2023/10/18 14:59:58;;;;;;;9.05;0.82;;;;;;;;;;4896535;29;20056;-75
2023/10/18 15:02:25;;;;;;;4.82;0.50;;;;;;;;;;4908261;29;20056;-76
2023/10/18 15:05:35;;;;;;;6.90;0.73;;;;;;;;;;4910811;29;20048;-73
2023/10/18 15:09:16;;;;;;;7.78;1.02;;;;;;;;;;4901300;29;20083;-76
2023/10/18 15:12:56;;;;;;;2.38;0.50;;;;;;;;;;4913505;29;20053;-74
2023/10/18 15:15:23;;;;;;;3.38;0.52;;;;;;;;;;4914707;29;20106;-75
2023/10/18 15:17:49;;;;;;;4.38;0.60;;;;;;;;;;4917171;29;20048;-75
2023/10/18 15:20:16;;;;;;;5.38;0.80;;;;;;;;;;4912580;29;20150;-76
2023/10/18 15:22:43;;;;;;;8.05;0.60;;;;;;;;;;4913710;29;20452;-80
2023/10/18 15:25:13;;;;;;;3.47;0.50;;;;;;;;;;4893970;29;20043;-79
2023/10/18 15:28:20;;;;;;;1.20;0.50;;;;;;;;;;4897878;29;20056;-77
2023/10/18 15:32:00;;;;;;;1.92;0.60;;;;;;;;;;4912135;29;20064;-77
2023/10/18 15:35:41;;;;;;;1.55;0.50;;;;;;;;;;4911205;29;20052;-83
2023/10/18 15:39:23;;;;;;;3.35;0.60;;;;;;;;;;4908819;29;20083;-82
2023/10/18 15:43:03;;;;;;;5.57;0.63;;;;;;;;;;4907025;29;20048;-79
2023/10/18 15:46:56;;;;;;;3.47;0.50;;;;;;;;;;4906422;29;20052;-77
2023/10/18 15:50:32;;;;;;;5.60;0.85;;;;;;;;;;4917149;29;20064;-76
2023/10/18 15:54:13;;;;;;;5.07;0.68;;;;;;;;;;4908222;29;20048;-77
2023/10/18 15:57:53;;;;;;;4.82;0.50;;;;;;;;;;4911655;29;20404;-76
2023/10/18 16:01:33;;;;;;;6.70;0.57;;;;;;;;;;4912721;29;20058;-75
2023/10/18 16:05:13;;;;;;;2.88;0.50;;;;;;;;;;4920048;29;20072;-82
2023/10/18 16:08:54;;;;;;;4.63;0.45;;;;;;;;;;4916021;29;20055;-81
2023/10/18 16:12:34;;;;;;;3.63;0.85;;;;;;;;;;4915591;29;20048;-83
2023/10/18 16:16:22;;;;;;;6.55;0.77;;;;;;;;;;4920688;29;20527;-83
2023/10/18 16:20:05;;;;;;;1.60;0.73;;;;;;;;;;4922747;29;20056;-78
2023/10/18 16:23:50;;;;;;;0.95;0.52;;;;;;;;;;4922307;29;20076;-81
2023/10/18 16:27:26;;;;;;;2.17;0.55;;;;;;;;;;4920996;29;20054;-82
2023/10/18 16:31:13;;;;;;;6.50;0.70;;;;;;;;;;4923483;29;20416;-82
2023/10/18 16:34:53;;;;;;;3.80;0.65;;;;;;;;;;4931770;29;20080;-80
2023/10/18 16:38:33;;;;;;;3.80;0.70;;;;;;;;;;4925750;29;20083;-80
2023/10/18 16:41:34;;;;;;;3.40;0.90;;;;;;;;;;4912045;29;20477;-78
2023/10/18 16:44:03;;;;;;;4.65;0.70;;;;;;;;;;4910335;29;20056;-81
2023/10/18 16:46:31;;;;;;;3.40;0.63;;;;;;;;;;4900330;29;20052;-83
2023/10/18 16:49:03;;;;;;;4.47;0.70;;;;;;;;;;4894723;29;20139;-82
2023/10/18 16:51:29;;;;;;;1.20;0.60;;;;;;;;;;4916468;29;20409;-77
2023/10/18 16:53:56;;;;;;;3.20;0.60;;;;;;;;;;4899379;29;20107;-78
2023/10/18 16:56:25;;;;;;;0.60;0.50;;;;;;;;;;4925807;29;20219;-82
2023/10/18 16:58:53;;;;;;;2.10;0.70;;;;;;;;;;4915836;29;20063;-75
2023/10/18 17:01:20;;;;;;;3.42;0.98;;;;;;;;;;4893627;29;20047;-72
2023/10/18 17:03:48;;;;;;;1.92;0.65;;;;;;;;;;4905249;29;20056;-77
2023/10/18 17:06:14;;;;;;;2.72;0.70;;;;;;;;;;4910428;29;20416;-77
2023/10/18 17:08:43;;;;;;;2.15;0.88;;;;;;;;;;4904750;29;20512;-76
2023/10/18 17:11:14;;;;;;;1.05;0.55;;;;;;;;;;4915717;29;20056;-76
2023/10/18 17:13:47;;;;;;;2.30;0.70;;;;;;;;;;4912396;29;20044;-76
2023/10/18 17:16:14;;;;;;;0.50;0.40;;;;;;;;;;4914660;29;20076;-79
2023/10/18 17:18:43;;;;;;;4.55;0.90;;;;;;;;;;4893679;29;20134;-78
2023/10/18 17:21:09;;;;;;;1.38;0.60;;;;;;;;;;4916623;29;20048;-76
2023/10/18 17:23:36;;;;;;;1.25;0.57;;;;;;;;;;4915435;29;20131;-78
2023/10/18 17:26:04;;;;;;;2.90;0.60;;;;;;;;;;4913449;29;20163;-72
2023/10/18 17:28:30;;;;;;;1.15;0.70;;;;;;;;;;4908015;29;20135;-78
2023/10/18 17:30:56;;;;;;;4.10;0.95;;;;;;;;;;4900671;29;20064;-75
2023/10/18 17:33:26;;;;;;;5.97;0.63;;;;;;;;;;4902486;29;20051;-75
2023/10/18 17:35:51;;;;;;;3.70;0.60;;;;;;;;;;4916012;29;20056;-76
2023/10/18 17:38:18;;;;;;;4.25;0.68;;;;;;;;;;4912553;29;20070;-79
2023/10/18 17:40:45;;;;;;;6.50;0.90;;;;;;;;;;4915121;29;20059;-78
2023/10/18 17:43:15;;;;;;;1.85;0.60;;;;;;;;;;4915146;29;20044;-74
2023/10/18 17:45:42;;;;;;;5.07;0.88;;;;;;;;;;4898407;29;20056;-78
2023/10/18 17:48:12;;;;;;;3.67;0.70;;;;;;;;;;4924906;29;20098;-78
2023/10/18 17:50:38;;;;;;;10.63;0.77;;;;;;;;;;4925519;29;20063;-79
2023/10/18 17:53:06;;;;;;;6.15;0.73;;;;;;;;;;4918965;29;20127;-78
2023/10/18 17:55:32;;;;;;;1.48;0.70;;;;;;;;;;4921216;29;20062;-79
2023/10/18 17:57:58;;;;;;;3.50;0.90;;;;;;;;;;4910780;29;20048;-75
2023/10/18 18:00:26;;;;;;;6.35;1.17;;;;;;;;;;4906300;29;20054;-75
2023/10/18 18:03:00;;;;;;;1.40;0.82;;;;;;;;;;4908570;29;20048;-76
2023/10/18 18:05:34;;;;;;;2.23;1.00;;;;;;;;;;4912025;29;20314;-76